createdAt,value
2018-04-02T00:00:49.045Z,1007.28
2018-04-02T00:01:49.055Z,1007.30
2018-04-02T00:02:49.074Z,1007.34
2018-04-02T00:03:49.079Z,1007.31
2018-04-02T00:04:49.095Z,1007.26
2018-04-02T00:05:49.109Z,1007.29
2018-04-02T00:06:49.118Z,1007.28
2018-04-02T00:07:49.137Z,1007.27
2018-04-02T00:08:49.198Z,1007.28
2018-04-02T00:09:49.159Z,1007.31
2018-04-02T00:10:49.170Z,1007.30
2018-04-02T00:11:49.184Z,1007.33
2018-04-02T00:12:49.201Z,1007.27
2018-04-02T00:13:49.208Z,1007.27
2018-04-02T00:14:49.227Z,1007.30
2018-04-02T00:15:49.287Z,1007.26
2018-04-02T00:16:49.248Z,1007.27
2018-04-02T00:17:49.264Z,1007.29
2018-04-02T00:18:49.272Z,1007.29
2018-04-02T00:19:49.285Z,1007.26
2018-04-02T00:20:49.299Z,1007.27
2018-04-02T00:21:49.311Z,1007.27
2018-04-02T00:22:49.325Z,1007.27
2018-04-02T00:23:49.435Z,1007.26
2018-04-02T00:24:49.349Z,1007.23
2018-04-02T00:25:49.362Z,1007.19
2018-04-02T00:26:49.377Z,1007.19
2018-04-02T00:27:49.390Z,1007.17
2018-04-02T00:28:49.401Z,1007.15
2018-04-02T00:29:49.413Z,1007.13
2018-04-02T00:30:49.425Z,1007.18
2018-04-02T00:31:49.437Z,1007.17
2018-04-02T00:32:49.454Z,1007.18
2018-04-02T00:33:49.462Z,1007.18
2018-04-02T00:34:49.475Z,1007.18
2018-04-02T00:35:49.485Z,1007.16
2018-04-02T00:36:49.499Z,1007.19
2018-04-02T00:37:49.512Z,1007.19
2018-04-02T00:38:49.525Z,1007.17
2018-04-02T00:39:49.538Z,1007.16
2018-04-02T00:40:49.548Z,1007.17
2018-04-02T00:41:49.563Z,1007.19
2018-04-02T00:42:49.574Z,1007.18
2018-04-02T00:43:49.588Z,1007.20
2018-04-02T00:44:49.599Z,1007.22
2018-04-02T00:45:49.613Z,1007.20
2018-04-02T00:46:49.629Z,1007.16
2018-04-02T00:47:49.688Z,1007.17
2018-04-02T00:48:50.032Z,1007.15
2018-04-02T00:49:49.661Z,1007.19
2018-04-02T00:50:49.675Z,1007.15
2018-04-02T00:51:49.693Z,1007.14
2018-04-02T00:52:49.700Z,1007.13
2018-04-02T00:53:49.813Z,1007.13
2018-04-02T00:54:49.727Z,1007.15
2018-04-02T00:55:49.740Z,1007.11
2018-04-02T00:56:49.752Z,1007.11
2018-04-02T00:57:49.766Z,1007.09
2018-04-02T00:58:49.778Z,1007.08
2018-04-02T00:59:49.792Z,1007.10
2018-04-02T01:00:49.802Z,1007.11
2018-04-02T01:01:49.817Z,1007.11
2018-04-02T01:02:49.829Z,1007.12
2018-04-02T01:03:49.870Z,1007.10
2018-04-02T01:04:49.855Z,1007.10
2018-04-02T01:05:49.869Z,1007.11
2018-04-02T01:06:49.880Z,1007.08
2018-04-02T01:07:49.900Z,1007.13
2018-04-02T01:08:49.905Z,1007.10
2018-04-02T01:09:49.917Z,1007.11
2018-04-02T01:10:49.929Z,1007.10
2018-04-02T01:11:49.949Z,1007.13
2018-04-02T01:12:49.957Z,1007.12
2018-04-02T01:13:49.968Z,1007.12
2018-04-02T01:14:49.984Z,1007.11
2018-04-02T01:15:49.993Z,1007.14
2018-04-02T01:16:50.013Z,1007.12
2018-04-02T01:17:50.019Z,1007.12
2018-04-02T01:18:50.032Z,1007.13
2018-04-02T01:19:50.047Z,1007.13
2018-04-02T01:21:50.094Z,1007.12
2018-04-02T01:22:50.082Z,1007.08
2018-04-02T01:23:50.095Z,1007.11
2018-04-02T01:24:50.111Z,1007.11
2018-04-02T01:25:50.131Z,1007.12
2018-04-02T01:26:50.133Z,1007.11
2018-04-02T01:27:50.144Z,1007.11
2018-04-02T01:28:50.165Z,1007.10
2018-04-02T01:29:50.174Z,1007.06
2018-04-02T01:30:50.185Z,1007.08
2018-04-02T01:31:50.200Z,1007.09
2018-04-02T01:32:50.212Z,1007.05
2018-04-02T01:33:50.225Z,1007.03
2018-04-02T01:34:50.289Z,1007.07
2018-04-02T01:35:50.250Z,1007.02
2018-04-02T01:36:50.260Z,1007.02
2018-04-02T01:37:50.279Z,1006.98
2018-04-02T01:38:50.290Z,1006.97
2018-04-02T01:39:50.300Z,1006.98
2018-04-02T01:40:50.317Z,1006.95
2018-04-02T01:41:50.327Z,1006.94
2018-04-02T01:42:50.350Z,1006.95
2018-04-02T01:43:50.351Z,1006.97
2018-04-02T01:44:50.366Z,1006.92
2018-04-02T01:45:50.395Z,1006.96
2018-04-02T01:46:50.393Z,1006.90
2018-04-02T01:47:50.402Z,1006.89
2018-04-02T01:48:50.416Z,1006.95
2018-04-02T01:49:50.430Z,1006.91
2018-04-02T01:50:50.444Z,1006.87
2018-04-02T01:51:50.509Z,1006.90
2018-04-02T01:52:50.467Z,1006.90
2018-04-02T01:53:50.498Z,1006.88
2018-04-02T01:54:50.493Z,1006.92
2018-04-02T01:55:50.509Z,1006.89
2018-04-02T01:56:50.525Z,1006.88
2018-04-02T01:57:50.538Z,1006.87
2018-04-02T01:58:50.543Z,1006.85
2018-04-02T01:59:50.555Z,1006.87
2018-04-02T02:00:50.573Z,1006.83
2018-04-02T02:01:50.584Z,1006.89
2018-04-02T02:02:50.596Z,1006.86
2018-04-02T02:03:50.608Z,1006.85
2018-04-02T02:04:50.620Z,1006.86
2018-04-02T02:05:50.638Z,1006.84
2018-04-02T02:06:50.646Z,1006.83
2018-04-02T02:07:50.658Z,1006.84
2018-04-02T02:08:50.672Z,1006.86
2018-04-02T02:09:50.685Z,1006.85
2018-04-02T02:10:50.697Z,1006.84
2018-04-02T02:11:50.728Z,1006.85
2018-04-02T02:12:50.722Z,1006.83
2018-04-02T02:13:50.737Z,1006.82
2018-04-02T02:14:50.749Z,1006.80
2018-04-02T02:15:50.762Z,1006.81
2018-04-02T02:16:50.779Z,1006.78
2018-04-02T02:17:50.788Z,1006.76
2018-04-02T02:18:50.807Z,1006.81
2018-04-02T02:19:50.814Z,1006.76
2018-04-02T02:20:50.824Z,1006.77
2018-04-02T02:21:50.842Z,1006.77
2018-04-02T02:22:50.904Z,1006.72
2018-04-02T02:23:50.932Z,1006.72
2018-04-02T02:24:50.882Z,1006.67
2018-04-02T02:25:50.890Z,1006.66
2018-04-02T02:26:50.905Z,1006.65
2018-04-02T02:27:50.917Z,1006.62
2018-04-02T02:28:50.929Z,1006.61
2018-04-02T02:29:50.945Z,1006.60
2018-04-02T02:30:50.957Z,1006.60
2018-04-02T02:31:50.972Z,1006.59
2018-04-02T02:32:50.991Z,1006.62
2018-04-02T02:33:50.995Z,1006.61
2018-04-02T02:34:51.014Z,1006.59
2018-04-02T02:35:51.017Z,1006.63
2018-04-02T02:36:51.031Z,1006.61
2018-04-02T02:37:51.044Z,1006.59
2018-04-02T02:38:51.056Z,1006.58
2018-04-02T02:39:51.076Z,1006.56
2018-04-02T02:40:51.083Z,1006.55
2018-04-02T02:41:51.095Z,1006.53
2018-04-02T02:42:51.109Z,1006.53
2018-04-02T02:43:51.118Z,1006.49
2018-04-02T02:44:51.133Z,1006.50
2018-04-02T02:45:51.145Z,1006.48
2018-04-02T02:46:51.159Z,1006.48
2018-04-02T02:47:51.175Z,1006.43
2018-04-02T02:48:51.184Z,1006.45
2018-04-02T02:49:51.202Z,1006.43
2018-04-02T02:50:51.210Z,1006.43
2018-04-02T02:51:51.226Z,1006.45
2018-04-02T02:52:51.240Z,1006.46
2018-04-02T02:53:51.249Z,1006.47
2018-04-02T02:54:51.266Z,1006.45
2018-04-02T02:55:51.277Z,1006.46
2018-04-02T02:56:51.381Z,1006.45
2018-04-02T02:57:51.501Z,1006.47
2018-04-02T02:58:51.312Z,1006.45
2018-04-02T02:59:51.324Z,1006.48
2018-04-02T03:00:51.338Z,1006.50
2018-04-02T03:01:51.349Z,1006.45
2018-04-02T03:02:51.365Z,1006.44
2018-04-02T03:03:51.374Z,1006.44
2018-04-02T03:04:51.390Z,1006.45
2018-04-02T03:05:51.403Z,1006.45
2018-04-02T03:06:51.415Z,1006.42
2018-04-02T03:07:51.420Z,1006.39
2018-04-02T03:08:51.432Z,1006.38
2018-04-02T03:09:51.442Z,1006.36
2018-04-02T03:10:51.457Z,1006.38
2018-04-02T03:11:51.466Z,1006.34
2018-04-02T03:12:51.480Z,1006.33
2018-04-02T03:13:51.493Z,1006.30
2018-04-02T03:14:51.504Z,1006.32
2018-04-02T03:15:51.521Z,1006.33
2018-04-02T03:16:51.532Z,1006.34
2018-04-02T03:17:51.548Z,1006.30
2018-04-02T03:18:51.556Z,1006.26
2018-04-02T03:19:51.569Z,1006.32
2018-04-02T03:20:51.581Z,1006.30
2018-04-02T03:21:51.599Z,1006.31
2018-04-02T03:22:51.608Z,1006.32
2018-04-02T03:23:51.623Z,1006.30
2018-04-02T03:24:51.633Z,1006.31
2018-04-02T03:25:51.650Z,1006.29
2018-04-02T03:26:51.660Z,1006.31
2018-04-02T03:27:51.723Z,1006.31
2018-04-02T03:28:51.682Z,1006.33
2018-04-02T03:29:51.699Z,1006.32
2018-04-02T03:30:51.710Z,1006.30
2018-04-02T03:31:51.720Z,1006.31
2018-04-02T03:32:51.736Z,1006.33
2018-04-02T03:33:51.744Z,1006.33
2018-04-02T03:34:51.758Z,1006.34
2018-04-02T03:35:51.771Z,1006.30
2018-04-02T03:36:51.782Z,1006.33
2018-04-02T03:37:51.797Z,1006.30
2018-04-02T03:38:51.815Z,1006.32
2018-04-02T03:39:51.820Z,1006.32
2018-04-02T03:40:51.834Z,1006.31
2018-04-02T03:41:51.848Z,1006.30
2018-04-02T03:42:51.864Z,1006.31
2018-04-02T03:43:51.872Z,1006.31
2018-04-02T03:44:51.890Z,1006.30
2018-04-02T03:45:51.897Z,1006.33
2018-04-02T03:46:51.918Z,1006.28
2018-04-02T03:47:51.920Z,1006.28
2018-04-02T03:48:51.939Z,1006.29
2018-04-02T03:49:51.948Z,1006.26
2018-04-02T03:50:51.959Z,1006.18
2018-04-02T03:51:51.975Z,1006.20
2018-04-02T03:52:51.986Z,1006.19
2018-04-02T03:53:52.005Z,1006.16
2018-04-02T03:54:52.010Z,1006.20
2018-04-02T03:55:52.032Z,1006.19
2018-04-02T03:56:52.081Z,1006.17
2018-04-02T03:57:52.064Z,1006.21
2018-04-02T03:58:52.067Z,1006.16
2018-04-02T03:59:52.145Z,1006.16
2018-04-02T04:00:52.087Z,1006.13
2018-04-02T04:01:52.104Z,1006.12
2018-04-02T04:02:52.120Z,1006.15
2018-04-02T04:03:52.129Z,1006.15
2018-04-02T04:04:52.135Z,1006.13
2018-04-02T04:05:52.150Z,1006.15
2018-04-02T04:06:52.161Z,1006.16
2018-04-02T04:07:52.175Z,1006.12
2018-04-02T04:08:52.185Z,1006.10
2018-04-02T04:09:52.207Z,1006.13
2018-04-02T04:10:52.216Z,1006.10
2018-04-02T04:11:52.229Z,1006.13
2018-04-02T04:12:52.235Z,1006.11
2018-04-02T04:13:52.252Z,1006.12
2018-04-02T04:14:52.265Z,1006.13
2018-04-02T04:15:52.277Z,1006.16
2018-04-02T04:16:52.288Z,1006.14
2018-04-02T04:17:52.302Z,1006.17
2018-04-02T04:18:52.312Z,1006.15
2018-04-02T04:19:52.323Z,1006.11
2018-04-02T04:20:52.382Z,1006.15
2018-04-02T04:21:52.349Z,1006.14
2018-04-02T04:22:52.362Z,1006.18
2018-04-02T04:23:52.380Z,1006.14
2018-04-02T04:24:52.392Z,1006.16
2018-04-02T04:25:52.398Z,1006.18
2018-04-02T04:26:52.411Z,1006.17
2018-04-02T04:27:52.427Z,1006.12
2018-04-02T04:28:52.438Z,1006.15
2018-04-02T04:29:52.448Z,1006.12
2018-04-02T04:30:52.578Z,1006.15
2018-04-02T04:31:52.592Z,1006.13
2018-04-02T04:32:52.489Z,1006.10
2018-04-02T04:33:52.498Z,1006.11
2018-04-02T04:34:52.513Z,1006.04
2018-04-02T04:35:52.523Z,1006.03
2018-04-02T04:36:52.542Z,1006.06
2018-04-02T04:37:52.548Z,1006.04
2018-04-02T04:38:52.561Z,1006.05
2018-04-02T04:39:52.573Z,1006.06
2018-04-02T04:40:52.584Z,1006.04
2018-04-02T04:41:52.597Z,1006.06
2018-04-02T04:42:52.609Z,1006.07
2018-04-02T04:43:52.622Z,1006.06
2018-04-02T04:44:52.634Z,1006.05
2018-04-02T04:45:52.648Z,1006.04
2018-04-02T04:46:52.659Z,1006.02
2018-04-02T04:47:52.674Z,1006.02
2018-04-02T04:48:52.738Z,1006.03
2018-04-02T04:49:52.697Z,1006.02
2018-04-02T04:50:52.715Z,1005.99
2018-04-02T04:51:52.721Z,1006.00
2018-04-02T04:52:52.736Z,1005.99
2018-04-02T04:53:52.752Z,1005.98
2018-04-02T04:54:52.759Z,1005.99
2018-04-02T04:55:52.775Z,1005.98
2018-04-02T04:56:52.783Z,1005.97
2018-04-02T04:57:52.796Z,1005.94
2018-04-02T04:58:52.818Z,1005.93
2018-04-02T04:59:52.819Z,1005.93
2018-04-02T05:00:52.834Z,1005.93
2018-04-02T05:01:52.847Z,1005.92
2018-04-02T05:02:52.910Z,1005.91
2018-04-02T05:03:52.981Z,1005.94
2018-04-02T05:04:52.881Z,1005.94
2018-04-02T05:05:52.895Z,1005.96
2018-04-02T05:06:52.906Z,1005.98
2018-04-02T05:07:52.922Z,1005.99
2018-04-02T05:08:52.930Z,1005.94
2018-04-02T05:09:52.948Z,1005.96
2018-04-02T05:10:52.956Z,1005.92
2018-04-02T05:11:53.088Z,1005.96
2018-04-02T05:12:52.981Z,1005.95
2018-04-02T05:13:52.998Z,1005.94
2018-04-02T05:14:53.108Z,1005.94
2018-04-02T05:15:53.023Z,1005.90
2018-04-02T05:16:53.029Z,1005.91
2018-04-02T05:17:53.044Z,1005.91
2018-04-02T05:18:53.058Z,1005.94
2018-04-02T05:19:53.065Z,1005.91
2018-04-02T05:20:53.079Z,1005.91
2018-04-02T05:21:53.091Z,1005.91
2018-04-02T05:22:53.153Z,1005.89
2018-04-02T05:23:53.115Z,1005.89
2018-04-02T05:24:53.127Z,1005.88
2018-04-02T05:25:53.139Z,1005.91
2018-04-02T05:26:53.155Z,1005.90
2018-04-02T05:27:53.173Z,1005.92
2018-04-02T05:28:53.175Z,1005.96
2018-04-02T05:29:53.190Z,1005.92
2018-04-02T05:30:53.204Z,1005.90
2018-04-02T05:31:53.213Z,1005.87
2018-04-02T05:32:53.224Z,1005.87
2018-04-02T05:33:53.238Z,1005.88
2018-04-02T05:34:53.253Z,1005.83
2018-04-02T05:35:53.576Z,1005.88
2018-04-02T05:36:53.279Z,1005.87
2018-04-02T05:37:53.288Z,1005.91
2018-04-02T05:38:53.301Z,1005.87
2018-04-02T05:39:53.316Z,1005.84
2018-04-02T05:40:53.324Z,1005.83
2018-04-02T05:41:53.335Z,1005.88
2018-04-02T05:42:53.349Z,1005.85
2018-04-02T05:43:53.361Z,1005.86
2018-04-02T05:44:53.375Z,1005.89
2018-04-02T05:45:53.390Z,1005.87
2018-04-02T05:46:53.397Z,1005.85
2018-04-02T05:47:53.511Z,1005.88
2018-04-02T05:48:53.425Z,1005.80
2018-04-02T05:49:53.433Z,1005.84
2018-04-02T05:50:53.446Z,1005.85
2018-04-02T05:51:53.464Z,1005.84
2018-04-02T05:52:53.470Z,1005.81
2018-04-02T05:53:53.489Z,1005.83
2018-04-02T05:54:53.494Z,1005.86
2018-04-02T05:55:53.507Z,1005.86
2018-04-02T05:56:53.526Z,1005.84
2018-04-02T05:57:53.535Z,1005.82
2018-04-02T05:58:53.543Z,1005.80
2018-04-02T05:59:53.557Z,1005.82
2018-04-02T06:00:53.569Z,1005.81
2018-04-02T06:01:53.584Z,1005.84
2018-04-02T06:02:53.617Z,1005.83
2018-04-02T06:03:53.616Z,1005.81
2018-04-02T06:04:53.621Z,1005.83
2018-04-02T06:05:53.940Z,1005.81
2018-04-02T06:06:53.768Z,1005.82
2018-04-02T06:07:53.657Z,1005.88
2018-04-02T06:08:53.668Z,1005.86
2018-04-02T06:09:53.681Z,1005.84
2018-04-02T06:10:53.693Z,1005.86
2018-04-02T06:11:53.710Z,1005.86
2018-04-02T06:12:53.722Z,1005.85
2018-04-02T06:13:53.730Z,1005.78
2018-04-02T06:14:53.744Z,1005.72
2018-04-02T06:15:53.754Z,1005.74
2018-04-02T06:16:53.767Z,1005.70
2018-04-02T06:17:53.781Z,1005.66
2018-04-02T06:18:53.795Z,1005.63
2018-04-02T06:19:53.812Z,1005.59
2018-04-02T06:20:53.820Z,1005.61
2018-04-02T06:21:53.832Z,1005.56
2018-04-02T06:22:53.841Z,1005.59
2018-04-02T06:23:53.854Z,1005.59
2018-04-02T06:24:53.866Z,1005.58
2018-04-02T06:25:53.879Z,1005.60
2018-04-02T06:26:53.897Z,1005.58
2018-04-02T06:27:53.903Z,1005.58
2018-04-02T06:28:53.914Z,1005.60
2018-04-02T06:29:53.930Z,1005.63
2018-04-02T06:30:53.944Z,1005.62
2018-04-02T06:31:53.970Z,1005.64
2018-04-02T06:32:53.965Z,1005.60
2018-04-02T06:33:53.988Z,1005.62
2018-04-02T06:34:53.993Z,1005.58
2018-04-02T06:35:54.007Z,1005.57
2018-04-02T06:36:54.058Z,1005.56
2018-04-02T06:37:54.034Z,1005.55
2018-04-02T06:38:54.117Z,1005.58
2018-04-02T06:39:54.068Z,1005.55
2018-04-02T06:40:54.084Z,1005.57
2018-04-02T06:41:54.102Z,1005.55
2018-04-02T06:42:54.094Z,1005.58
2018-04-02T06:43:54.110Z,1005.56
2018-04-02T06:44:54.119Z,1005.56
2018-04-02T06:45:54.134Z,1005.52
2018-04-02T06:46:54.147Z,1005.50
2018-04-02T06:47:54.159Z,1005.51
2018-04-02T06:48:54.172Z,1005.50
2018-04-02T06:49:54.189Z,1005.50
2018-04-02T06:50:54.206Z,1005.54
2018-04-02T06:51:54.837Z,1005.53
2018-04-02T06:52:54.260Z,1005.56
2018-04-02T06:53:54.236Z,1005.53
2018-04-02T06:54:54.249Z,1005.58
2018-04-02T06:55:54.261Z,1005.52
2018-04-02T06:56:54.280Z,1005.55
2018-04-02T06:57:54.286Z,1005.53
2018-04-02T06:58:54.307Z,1005.55
2018-04-02T06:59:54.312Z,1005.55
2018-04-02T07:00:54.344Z,1005.55
2018-04-02T07:01:54.341Z,1005.51
2018-04-02T07:02:54.354Z,1005.54
2018-04-02T07:03:54.451Z,1005.52
2018-04-02T07:04:54.383Z,1005.51
2018-04-02T07:05:54.390Z,1005.54
2018-04-02T07:06:54.413Z,1005.52
2018-04-02T07:07:54.421Z,1005.51
2018-04-02T07:08:54.478Z,1005.49
2018-04-02T07:09:54.445Z,1005.54
2018-04-02T07:10:54.490Z,1005.53
2018-04-02T07:11:54.466Z,1005.51
2018-04-02T07:12:54.525Z,1005.53
2018-04-02T07:13:54.499Z,1005.49
2018-04-02T07:14:54.507Z,1005.49
2018-04-02T07:15:54.525Z,1005.47
2018-04-02T07:16:54.532Z,1005.47
2018-04-02T07:17:54.545Z,1005.47
2018-04-02T07:18:54.560Z,1005.45
2018-04-02T07:19:54.571Z,1005.46
2018-04-02T07:20:54.583Z,1005.47
2018-04-02T07:21:54.598Z,1005.44
2018-04-02T07:22:54.612Z,1005.47
2018-04-02T07:23:54.626Z,1005.47
2018-04-02T07:24:54.636Z,1005.46
2018-04-02T07:25:54.652Z,1005.43
2018-04-02T07:26:54.661Z,1005.40
2018-04-02T07:27:54.675Z,1005.46
2018-04-02T07:28:54.687Z,1005.40
2018-04-02T07:29:54.707Z,1005.43
2018-04-02T07:30:54.712Z,1005.39
2018-04-02T07:31:54.735Z,1005.39
2018-04-02T07:32:54.753Z,1005.41
2018-04-02T07:33:54.832Z,1005.41
2018-04-02T07:34:54.765Z,1005.45
2018-04-02T07:35:54.778Z,1005.44
2018-04-02T07:36:54.789Z,1005.39
2018-04-02T07:37:54.812Z,1005.40
2018-04-02T07:38:54.818Z,1005.38
2018-04-02T07:39:54.897Z,1005.33
2018-04-02T07:40:54.864Z,1005.33
2018-04-02T07:41:54.857Z,1005.28
2018-04-02T07:42:54.872Z,1005.33
2018-04-02T07:43:54.883Z,1005.23
2018-04-02T07:44:54.909Z,1005.20
2018-04-02T07:45:54.911Z,1005.22
2018-04-02T07:46:54.924Z,1005.20
2018-04-02T07:47:54.948Z,1005.20
2018-04-02T07:48:54.951Z,1005.20
2018-04-02T07:49:54.960Z,1005.18
2018-04-02T07:50:54.969Z,1005.21
2018-04-02T07:51:54.991Z,1005.19
2018-04-02T07:52:54.997Z,1005.19
2018-04-02T07:53:55.066Z,1005.17
2018-04-02T07:54:55.024Z,1005.22
2018-04-02T07:55:55.035Z,1005.21
2018-04-02T07:56:55.056Z,1005.23
2018-04-02T07:57:55.082Z,1005.25
2018-04-02T07:58:55.078Z,1005.27
2018-04-02T07:59:55.088Z,1005.18
2018-04-02T08:00:55.110Z,1005.20
2018-04-02T08:01:55.121Z,1005.20
2018-04-02T08:02:55.268Z,1005.19
2018-04-02T08:03:55.160Z,1005.21
2018-04-02T08:04:55.159Z,1005.23
2018-04-02T08:05:55.170Z,1005.21
2018-04-02T08:06:55.182Z,1005.20
2018-04-02T08:07:55.197Z,1005.14
2018-04-02T08:08:55.213Z,1005.19
2018-04-02T08:09:55.231Z,1005.16
2018-04-02T08:10:55.247Z,1005.16
2018-04-02T08:11:55.249Z,1005.13
2018-04-02T08:12:55.263Z,1005.18
2018-04-02T08:13:55.418Z,1005.14
2018-04-02T08:14:55.301Z,1005.12
2018-04-02T08:15:55.345Z,1005.09
2018-04-02T08:16:55.322Z,1005.09
2018-04-02T08:17:55.341Z,1005.09
2018-04-02T08:18:55.349Z,1005.06
2018-04-02T08:19:55.364Z,1005.07
2018-04-02T08:20:55.374Z,1005.05
2018-04-02T08:21:55.390Z,1005.04
2018-04-02T08:22:55.484Z,1005.01
2018-04-02T08:23:55.434Z,1005.01
2018-04-02T08:24:55.434Z,1005.02
2018-04-02T08:25:55.451Z,1005.01
2018-04-02T08:26:55.455Z,1005.03
2018-04-02T08:27:55.468Z,1005.02
2018-04-02T08:28:55.485Z,1004.99
2018-04-02T08:29:55.499Z,1004.94
2018-04-02T08:30:55.511Z,1004.96
2018-04-02T08:31:55.624Z,1004.97
2018-04-02T08:32:55.545Z,1004.97
2018-04-02T08:33:55.557Z,1004.98
2018-04-02T08:34:55.571Z,1004.93
2018-04-02T08:35:55.586Z,1004.90
2018-04-02T08:36:55.599Z,1004.89
2018-04-02T08:37:55.612Z,1004.87
2018-04-02T08:38:55.678Z,1004.84
2018-04-02T08:39:55.639Z,1004.83
2018-04-02T08:40:55.651Z,1004.87
2018-04-02T08:41:55.674Z,1004.87
2018-04-02T08:42:55.687Z,1004.87
2018-04-02T08:43:55.696Z,1004.88
2018-04-02T08:44:55.714Z,1004.88
2018-04-02T08:45:55.723Z,1004.89
2018-04-02T08:46:55.737Z,1004.90
2018-04-02T08:48:55.764Z,1004.84
2018-04-02T08:49:55.781Z,1004.85
2018-04-02T08:50:55.798Z,1004.87
2018-04-02T08:51:55.809Z,1004.83
2018-04-02T08:52:55.872Z,1004.83
2018-04-02T08:53:55.836Z,1004.83
2018-04-02T08:54:55.851Z,1004.82
2018-04-02T08:55:55.865Z,1004.82
2018-04-02T08:56:55.879Z,1004.82
2018-04-02T08:57:55.905Z,1004.80
2018-04-02T08:58:55.909Z,1004.76
2018-04-02T08:59:55.936Z,1004.74
2018-04-02T09:00:55.936Z,1004.74
2018-04-02T09:01:55.948Z,1004.71
2018-04-02T09:02:55.974Z,1004.70
2018-04-02T09:03:55.985Z,1004.67
2018-04-02T09:04:56.026Z,1004.72
2018-04-02T09:05:56.009Z,1004.68
2018-04-02T09:06:56.034Z,1004.64
2018-04-02T09:07:56.036Z,1004.62
2018-04-02T09:08:56.053Z,1004.63
2018-04-02T09:09:56.066Z,1004.62
2018-04-02T09:10:56.086Z,1004.60
2018-04-02T09:11:56.095Z,1004.63
2018-04-02T09:12:56.108Z,1004.61
2018-04-02T09:13:56.126Z,1004.59
2018-04-02T09:14:56.140Z,1004.59
2018-04-02T09:15:56.152Z,1004.57
2018-04-02T09:16:56.168Z,1004.54
2018-04-02T09:17:56.182Z,1004.53
2018-04-02T09:18:56.202Z,1004.51
2018-04-02T09:19:56.216Z,1004.51
2018-04-02T09:20:56.255Z,1004.40
2018-04-02T09:21:56.241Z,1004.42
2018-04-02T09:22:56.256Z,1004.40
2018-04-02T09:23:56.267Z,1004.33
2018-04-02T09:24:56.286Z,1004.33
2018-04-02T09:25:56.298Z,1004.33
2018-04-02T09:26:56.312Z,1004.30
2018-04-02T09:27:56.327Z,1004.29
2018-04-02T09:28:56.342Z,1004.29
2018-04-02T09:29:56.365Z,1004.27
2018-04-02T09:30:56.378Z,1004.24
2018-04-02T09:31:56.400Z,1004.22
2018-04-02T09:32:56.402Z,1004.20
2018-04-02T09:33:56.415Z,1004.19
2018-04-02T09:34:56.430Z,1004.19
2018-04-02T09:35:56.451Z,1004.14
2018-04-02T09:36:56.510Z,1004.14
2018-04-02T09:37:56.505Z,1004.15
2018-04-02T09:38:56.490Z,1004.18
2018-04-02T09:39:56.505Z,1004.15
2018-04-02T09:40:56.518Z,1004.16
2018-04-02T09:41:56.535Z,1004.16
2018-04-02T09:42:56.560Z,1004.15
2018-04-02T09:43:56.562Z,1004.15
2018-04-02T09:44:56.577Z,1004.12
2018-04-02T09:45:56.592Z,1004.13
2018-04-02T09:46:56.616Z,1004.11
2018-04-02T09:47:56.623Z,1004.10
2018-04-02T09:48:56.636Z,1004.09
2018-04-02T09:49:56.656Z,1004.05
2018-04-02T09:50:56.667Z,1004.06
2018-04-02T09:51:56.684Z,1004.03
2018-04-02T09:52:56.702Z,1004.01
2018-04-02T09:53:57.022Z,1003.99
2018-04-02T09:54:56.729Z,1003.94
2018-04-02T09:55:56.745Z,1003.94
2018-04-02T09:56:56.761Z,1003.96
2018-04-02T09:57:56.777Z,1003.94
2018-04-02T09:58:56.789Z,1003.92
2018-04-02T09:59:56.804Z,1003.94
2018-04-02T10:00:56.821Z,1003.99
2018-04-02T10:01:56.833Z,1003.98
2018-04-02T10:02:56.864Z,1003.96
2018-04-02T10:03:56.864Z,1003.95
2018-04-02T10:04:56.999Z,1003.89
2018-04-02T10:05:56.899Z,1003.87
2018-04-02T10:06:56.915Z,1003.78
2018-04-02T10:07:56.925Z,1003.77
2018-04-02T10:08:56.947Z,1003.79
2018-04-02T10:09:56.997Z,1003.78
2018-04-02T10:10:56.974Z,1003.73
2018-04-02T10:11:56.984Z,1003.75
2018-04-02T10:12:57.001Z,1003.74
2018-04-02T10:13:57.017Z,1003.72
2018-04-02T10:14:57.037Z,1003.71
2018-04-02T10:15:57.048Z,1003.72
2018-04-02T10:16:57.062Z,1003.67
2018-04-02T10:17:57.082Z,1003.67
2018-04-02T10:18:57.095Z,1003.60
2018-04-02T10:19:57.111Z,1003.63
2018-04-02T10:20:57.121Z,1003.61
2018-04-02T10:21:57.141Z,1003.61
2018-04-02T10:22:57.151Z,1003.57
2018-04-02T10:23:57.269Z,1003.57
2018-04-02T10:24:57.182Z,1003.57
2018-04-02T10:25:57.199Z,1003.51
2018-04-02T10:26:57.213Z,1003.49
2018-04-02T10:27:57.245Z,1003.50
2018-04-02T10:28:57.244Z,1003.45
2018-04-02T10:29:57.312Z,1003.48
2018-04-02T10:30:57.276Z,1003.43
2018-04-02T10:31:57.291Z,1003.39
2018-04-02T10:32:57.306Z,1003.40
2018-04-02T10:33:57.321Z,1003.39
2018-04-02T10:34:57.350Z,1003.35
2018-04-02T10:35:57.354Z,1003.26
2018-04-02T10:36:57.367Z,1003.24
2018-04-02T10:37:57.382Z,1003.29
2018-04-02T10:38:57.498Z,1003.21
2018-04-02T10:39:57.414Z,1003.19
2018-04-02T10:40:57.429Z,1003.17
2018-04-02T10:41:57.444Z,1003.18
2018-04-02T10:42:57.467Z,1003.22
2018-04-02T10:43:57.522Z,1003.19
2018-04-02T10:44:57.492Z,1003.23
2018-04-02T10:45:57.505Z,1003.16
2018-04-02T10:46:57.521Z,1003.15
2018-04-02T10:47:57.537Z,1003.13
2018-04-02T10:48:57.547Z,1003.13
2018-04-02T10:49:57.578Z,1003.18
2018-04-02T10:50:57.587Z,1003.18
2018-04-02T10:51:57.607Z,1003.16
2018-04-02T10:52:57.611Z,1003.12
2018-04-02T10:53:57.646Z,1003.12
2018-04-02T10:54:57.658Z,1003.17
2018-04-02T10:55:57.658Z,1003.11
2018-04-02T10:56:57.673Z,1003.07
2018-04-02T10:57:57.687Z,1003.08
2018-04-02T10:58:57.714Z,1003.02
2018-04-02T10:59:57.742Z,1003.03
2018-04-02T11:00:57.770Z,1002.99
2018-04-02T11:01:57.750Z,1002.97
2018-04-02T11:02:57.766Z,1002.93
2018-04-02T11:03:57.788Z,1002.89
2018-04-02T11:04:57.820Z,1002.80
2018-04-02T11:05:57.813Z,1002.84
2018-04-02T11:06:57.822Z,1002.82
2018-04-02T11:07:57.835Z,1002.76
2018-04-02T11:08:57.855Z,1002.77
2018-04-02T11:09:57.874Z,1002.72
2018-04-02T11:10:57.881Z,1002.70
2018-04-02T11:11:57.914Z,1002.68
2018-04-02T11:12:57.916Z,1002.64
2018-04-02T11:13:57.928Z,1002.59
2018-04-02T11:14:57.944Z,1002.70
2018-04-02T11:15:57.959Z,1002.65
2018-04-02T11:16:57.976Z,1002.56
2018-04-02T11:17:58.020Z,1002.60
2018-04-02T11:18:58.008Z,1002.57
2018-04-02T11:19:58.022Z,1002.55
2018-04-02T11:20:58.040Z,1002.52
2018-04-02T11:21:58.054Z,1002.52
2018-04-02T11:22:58.068Z,1002.48
2018-04-02T11:23:58.084Z,1002.45
2018-04-02T11:24:58.101Z,1002.39
2018-04-02T11:25:58.116Z,1002.42
2018-04-02T11:26:58.133Z,1002.40
2018-04-02T11:27:58.154Z,1002.44
2018-04-02T11:28:58.170Z,1002.39
2018-04-02T11:29:58.179Z,1002.34
2018-04-02T11:30:58.193Z,1002.34
2018-04-02T11:31:58.259Z,1002.32
2018-04-02T11:32:58.225Z,1002.32
2018-04-02T11:33:58.246Z,1002.32
2018-04-02T11:34:58.261Z,1002.24
2018-04-02T11:35:58.274Z,1002.30
2018-04-02T11:36:58.288Z,1002.23
2018-04-02T11:37:58.312Z,1002.30
2018-04-02T11:38:58.320Z,1002.27
2018-04-02T11:39:58.334Z,1002.31
2018-04-02T11:40:58.351Z,1002.24
2018-04-02T11:41:58.366Z,1002.24
2018-04-02T11:42:58.567Z,1002.27
2018-04-02T11:43:58.527Z,1002.21
2018-04-02T11:44:58.421Z,1002.21
2018-04-02T11:45:58.432Z,1002.22
2018-04-02T11:46:58.448Z,1002.22
2018-04-02T11:47:58.459Z,1002.23
2018-04-02T11:48:58.475Z,1002.19
2018-04-02T11:49:58.494Z,1002.24
2018-04-02T11:50:58.506Z,1002.24
2018-04-02T11:51:58.522Z,1002.19
2018-04-02T11:52:58.537Z,1002.18
2018-04-02T11:53:58.557Z,1002.15
2018-04-02T11:54:58.570Z,1002.17
2018-04-02T11:55:58.584Z,1002.15
2018-04-02T11:56:58.601Z,1002.09
2018-04-02T11:57:58.617Z,1002.11
2018-04-02T11:58:58.631Z,1002.10
2018-04-02T11:59:58.646Z,1002.06
2018-04-02T12:00:58.661Z,1002.09
2018-04-02T12:01:58.683Z,1002.04
2018-04-02T12:02:58.703Z,1002.05
2018-04-02T12:03:58.730Z,1002.01
2018-04-02T12:04:58.730Z,1001.97
2018-04-02T12:05:58.754Z,1001.96
2018-04-02T12:06:58.770Z,1001.92
2018-04-02T12:07:58.772Z,1001.94